Time;durP1;ratioP1;P1;durP2;ratioP2;P2;SDS_P1;SDS_P2;PMS_P1;PMS_P2;Temp;Humidity;BMP_temperature;BMP_pressure;BME280_temperature;BME280_humidity;BME280_pressure;Samples;Min_cycle;Max_cycle;Signal;HPM_P1;HPM_P2
2024/01/23 00:00:30;;;;;;;10.95;3.22;;;;;;;;;;5032208;28;20060;-86
2024/01/23 00:02:56;;;;;;;18.50;3.88;;;;;;;;;;5050643;28;20049;-85
2024/01/23 00:05:22;;;;;;;19.85;2.90;;;;;;;;;;5031878;28;20045;-86
2024/01/23 00:07:48;;;;;;;15.60;3.38;;;;;;;;;;5041545;28;20131;-86
2024/01/23 00:10:14;;;;;;;18.23;3.53;;;;;;;;;;5031852;28;20053;-85
2024/01/23 00:12:40;;;;;;;19.60;3.70;;;;;;;;;;5041052;28;20041;-85
2024/01/23 00:15:06;;;;;;;16.80;3.10;;;;;;;;;;5031769;28;20099;-87
2024/01/23 00:17:33;;;;;;;19.63;3.75;;;;;;;;;;5031524;28;20076;-86
2024/01/23 00:19:58;;;;;;;16.63;3.83;;;;;;;;;;5036194;28;20099;-86
2024/01/23 00:22:25;;;;;;;15.32;3.13;;;;;;;;;;5031546;28;20095;-85
2024/01/23 00:24:51;;;;;;;14.55;3.22;;;;;;;;;;5033073;28;20098;-86
2024/01/23 00:27:17;;;;;;;20.02;3.50;;;;;;;;;;5040361;28;20079;-86
2024/01/23 00:29:43;;;;;;;10.45;3.00;;;;;;;;;;5033368;28;20077;-86
2024/01/23 00:32:09;;;;;;;16.35;4.03;;;;;;;;;;5039303;28;20119;-87
2024/01/23 00:34:35;;;;;;;8.63;2.55;;;;;;;;;;5023746;28;20767;-86
2024/01/23 00:37:02;;;;;;;15.55;3.38;;;;;;;;;;5035139;28;20050;-86
2024/01/23 00:39:29;;;;;;;21.63;4.28;;;;;;;;;;5048545;28;20044;-86
2024/01/23 00:41:55;;;;;;;13.15;3.10;;;;;;;;;;5041422;28;20044;-86
2024/01/23 00:44:21;;;;;;;13.27;3.40;;;;;;;;;;5038160;28;20095;-86
2024/01/23 00:46:47;;;;;;;15.32;2.50;;;;;;;;;;5023559;28;20048;-86
2024/01/23 00:49:13;;;;;;;14.68;2.95;;;;;;;;;;5016491;28;20041;-86
2024/01/23 00:51:39;;;;;;;15.32;3.58;;;;;;;;;;5022476;28;20565;-86
2024/01/23 00:54:05;;;;;;;14.02;3.47;;;;;;;;;;5035673;28;20131;-86
2024/01/23 00:56:31;;;;;;;15.18;2.88;;;;;;;;;;5051156;28;20056;-86
2024/01/23 00:58:57;;;;;;;12.98;3.15;;;;;;;;;;5047498;28;20547;-85
2024/01/23 01:01:23;;;;;;;18.75;3.63;;;;;;;;;;5037674;28;20040;-86
2024/01/23 01:03:49;;;;;;;19.33;2.95;;;;;;;;;;5048123;28;20048;-86
2024/01/23 01:06:15;;;;;;;15.48;3.20;;;;;;;;;;5040390;28;20037;-86
2024/01/23 01:08:41;;;;;;;12.63;2.90;;;;;;;;;;5039023;28;20543;-86
2024/01/23 01:11:07;;;;;;;11.15;3.00;;;;;;;;;;5048317;28;20090;-85
2024/01/23 01:13:33;;;;;;;18.80;4.00;;;;;;;;;;5044852;28;20051;-85
2024/01/23 01:15:59;;;;;;;18.45;3.25;;;;;;;;;;5046075;28;20041;-86
2024/01/23 01:18:25;;;;;;;13.63;3.03;;;;;;;;;;5043179;28;20032;-86
2024/01/23 01:20:51;;;;;;;18.50;3.13;;;;;;;;;;5040927;28;20053;-86
2024/01/23 01:23:17;;;;;;;20.45;3.88;;;;;;;;;;5033932;28;20049;-85
2024/01/23 01:25:45;;;;;;;24.30;3.78;;;;;;;;;;5030350;28;20037;-86
2024/01/23 01:28:12;;;;;;;22.08;5.10;;;;;;;;;;5033055;28;20403;-87
2024/01/23 01:30:38;;;;;;;12.63;2.70;;;;;;;;;;5021140;28;20616;-86
2024/01/23 01:33:05;;;;;;;18.38;4.07;;;;;;;;;;5033033;28;20036;-87
2024/01/23 01:35:32;;;;;;;13.65;3.50;;;;;;;;;;5032338;28;20041;-86
2024/01/23 01:37:58;;;;;;;16.38;3.25;;;;;;;;;;5029907;28;20064;-86
2024/01/23 01:40:25;;;;;;;22.25;3.08;;;;;;;;;;5026596;28;20765;-85
2024/01/23 01:42:53;;;;;;;14.43;2.70;;;;;;;;;;5055488;28;20541;-86
2024/01/23 01:45:19;;;;;;;13.05;3.22;;;;;;;;;;5049308;28;20047;-86
2024/01/23 01:47:47;;;;;;;18.55;3.67;;;;;;;;;;5037479;28;20045;-86
2024/01/23 01:50:13;;;;;;;22.60;3.78;;;;;;;;;;5026869;28;20122;-86
2024/01/23 01:52:41;;;;;;;12.13;3.33;;;7.00;99.90;;;;;;5040324;28;20040;-86
2024/01/23 01:55:07;;;;;;;12.43;3.50;;;;;;;;;;5041929;28;20045;-86
2024/01/23 01:57:36;;;;;;;19.83;3.58;;;;;;;;;;5044477;28;20029;-86
2024/01/23 02:00:02;;;;;;;17.48;3.45;;;;;;;;;;5047335;28;20051;-86
2024/01/23 02:02:28;;;;;;;18.95;3.88;;;;;;;;;;5038475;28;20040;-85
2024/01/23 02:04:54;;;;;;;13.50;3.95;;;;;;;;;;5039745;28;20058;-86
2024/01/23 02:07:20;;;;;;;22.48;3.38;;;;;;;;;;5035070;28;20412;-86
2024/01/23 02:09:46;;;;;;;19.02;4.25;;;;;;;;;;5033032;28;20052;-86
2024/01/23 02:12:12;;;;;;;14.20;3.60;;;;;;;;;;5050360;28;20040;-86
2024/01/23 02:14:38;;;;;;;21.08;4.63;;;;;;;;;;5032198;28;20415;-86
2024/01/23 02:17:04;;;;;;;22.92;4.22;;;;;;;;;;5027510;28;20048;-86
2024/01/23 02:19:30;;;;;;;16.95;4.32;;;;;;;;;;5027207;28;20045;-85
2024/01/23 02:21:56;;;;;;;19.33;4.03;;;;;;;;;;5033340;28;20045;-86
2024/01/23 02:24:22;;;;;;;20.70;3.53;;;;;;;;;;5043839;28;20055;-86
2024/01/23 02:26:48;;;;;;;17.05;3.80;;;;;;;;;;5034522;28;20673;-85
2024/01/23 02:29:16;;;;;;;19.33;3.53;;;;;;;;;;5041100;28;20041;-86
2024/01/23 02:31:42;;;;;;;15.98;3.55;;;;;;;;;;5054882;28;20485;-85
2024/01/23 02:34:08;;;;;;;15.73;3.60;;;;;;;;;;5054478;28;20049;-86
2024/01/23 02:36:39;;;;;;;18.73;3.75;;;;;;;;;;5029318;28;20049;-85
2024/01/23 02:39:05;;;;;;;13.23;3.85;;;;;;;;;;5040460;28;20661;-85
2024/01/23 02:41:31;;;;;;;13.90;3.10;;;;;;;;;;5036388;28;20052;-86
2024/01/23 02:43:58;;;;;;;19.08;3.90;;;;;;;;;;5027300;28;20046;-86
2024/01/23 02:46:24;;;;;;;20.58;3.60;;;;;;;;;;5035697;28;20072;-86
2024/01/23 02:48:50;;;;;;;16.23;4.05;;;;;;;;;;5039401;28;20040;-86
2024/01/23 02:51:20;;;;;;;15.48;4.28;;;;;;;;;;5058961;28;20516;-86
2024/01/23 02:53:46;;;;;;;20.80;4.28;;;6.80;99.90;;;;;;5044078;28;20047;-86
2024/01/23 02:56:12;;;;;;;24.65;3.38;;;;;;;;;;5040391;28;20064;-87
2024/01/23 02:58:42;;;;;;;20.92;3.72;;;;;;;;;;5039036;28;20075;-85
2024/01/23 03:01:08;;;;;;;13.30;2.95;;;;;;;;;;5036887;28;20115;-86
2024/01/23 03:03:34;;;;;;;21.15;4.25;;;;;;;;;;5039446;28;20075;-86
2024/01/23 03:06:00;;;;;;;18.02;4.45;;;;;;;;;;5038899;28;20478;-85
2024/01/23 03:08:26;;;;;;;22.40;4.30;;;;;;;;;;5052986;28;20048;-85
2024/01/23 03:10:52;;;;;;;18.80;4.00;;;;;;;;;;5054063;28;20053;-86
2024/01/23 03:13:18;;;;;;;25.20;5.53;;;;;;;;;;5045159;28;20092;-86
2024/01/23 03:15:44;;;;;;;21.60;4.32;;;;;;;;;;5047855;28;20086;-86
2024/01/23 03:18:11;;;;;;;22.50;4.20;;;;;;;;;;5037277;28;20052;-86
2024/01/23 03:20:37;;;;;;;20.58;3.67;;;;;;;;;;5035314;28;20481;-86
2024/01/23 03:23:03;;;;;;;21.40;4.47;;;;;;;;;;5045750;28;20498;-87
2024/01/23 03:25:29;;;;;;;34.40;4.93;;;;;;;;;;5042975;28;20043;-85
2024/01/23 03:27:56;;;;;;;20.80;3.25;;;;;;;;;;5037811;28;20079;-85
2024/01/23 03:30:32;;;;;;;23.92;4.10;;;;;;;;;;5046910;28;20044;-86
2024/01/23 03:32:58;;;;;;;22.05;4.85;;;;;;;;;;5042330;28;20824;-85
2024/01/23 03:35:25;;;;;;;18.77;3.63;;;;;;;;;;5041723;28;20090;-86
2024/01/23 03:37:51;;;;;;;21.45;5.30;;;;;;;;;;5044206;28;20049;-85
2024/01/23 03:40:17;;;;;;;16.33;3.38;;;;;;;;;;5048967;28;20642;-86
2024/01/23 03:42:43;;;;;;;27.75;5.53;;;;;;;;;;5038562;28;20036;-86
2024/01/23 03:45:09;;;;;;;15.98;3.63;;;;;;;;;;5051575;28;20053;-86
2024/01/23 03:47:35;;;;;;;25.10;5.28;;;;;;;;;;5042653;28;20055;-86
2024/01/23 03:50:02;;;;;;;22.25;3.97;;;;;;;;;;5036334;28;20060;-85
2024/01/23 03:52:28;;;;;;;20.10;4.70;;;;;;;;;;5036386;28;20033;-85
2024/01/23 03:54:54;;;;;;;18.15;3.78;;;;;;;;;;5056082;28;20040;-86
2024/01/23 03:57:20;;;;;;;20.42;4.30;;;;;;;;;;5038737;28;20047;-86
2024/01/23 03:59:46;;;;;;;33.03;5.30;;;;;;;;;;5047038;28;20036;-86
2024/01/23 04:02:12;;;;;;;16.27;4.03;;;;;;;;;;5051782;28;20043;-86
2024/01/23 04:04:39;;;;;;;24.70;3.78;;;;;;;;;;5025330;28;20077;-86
2024/01/23 04:07:05;;;;;;;21.50;4.32;;;;;;;;;;5040315;28;20079;-86
2024/01/23 04:09:31;;;;;;;20.80;4.03;;;;;;;;;;5022838;28;20053;-86
2024/01/23 04:11:57;;;;;;;17.80;4.35;;;;;;;;;;5061409;28;20034;-86
2024/01/23 04:14:23;;;;;;;19.00;4.25;;;;;;;;;;5060441;28;20041;-86
2024/01/23 04:16:49;;;;;;;22.23;5.22;;;;;;;;;;5033632;28;20040;-85
2024/01/23 04:19:15;;;;;;;20.65;4.43;;;;;;;;;;5031401;28;20049;-86
2024/01/23 04:21:41;;;;;;;24.00;4.20;;;;;;;;;;5033277;28;20056;-85
2024/01/23 04:24:07;;;;;;;26.77;6.38;;;;;;;;;;5032191;28;20044;-86
2024/01/23 04:26:33;;;;;;;24.48;4.28;;;;;;;;;;5038146;28;20060;-85
2024/01/23 04:28:59;;;;;;;19.23;4.32;;;;;;;;;;5037437;28;20418;-86
2024/01/23 04:31:25;;;;;;;20.95;3.72;;;;;;;;;;5034262;28;20094;-85
2024/01/23 04:33:52;;;;;;;21.20;3.60;;;;;;;;;;5044992;28;20047;-85
2024/01/23 04:36:19;;;;;;;21.23;3.60;;;;;;;;;;5037213;28;20036;-85
2024/01/23 04:38:45;;;;;;;21.30;4.22;;;;;;;;;;5042729;28;20127;-85
2024/01/23 04:41:11;;;;;;;22.38;4.35;;;;;;;;;;5053067;28;20056;-86
2024/01/23 04:43:38;;;;;;;24.25;5.40;;;;;;;;;;5044879;28;20033;-86
2024/01/23 04:46:05;;;;;;;20.73;4.53;;;;;;;;;;5034606;28;20090;-86
2024/01/23 04:48:31;;;;;;;21.63;4.75;;;;;;;;;;5039541;28;20044;-86
2024/01/23 04:50:57;;;;;;;18.83;3.65;;;;;;;;;;5039203;28;20471;-85
2024/01/23 04:53:27;;;;;;;26.70;5.53;;;;;;;;;;5031830;28;20079;-86
2024/01/23 04:55:53;;;;;;;16.73;4.47;;;;;;;;;;5032427;28;20037;-85
2024/01/23 04:58:19;;;;;;;20.33;4.07;;;;;;;;;;5048079;28;20040;-86
2024/01/23 05:00:45;;;;;;;23.20;4.68;;;;;;;;;;5045778;28;20037;-86
2024/01/23 05:03:11;;;;;;;24.83;5.43;;;;;;;;;;5040907;28;20495;-86
2024/01/23 05:05:37;;;;;;;23.73;5.50;;;;;;;;;;5041441;28;20045;-85
2024/01/23 05:08:03;;;;;;;22.35;5.15;;;;;;;;;;5032434;28;20040;-86
2024/01/23 05:10:29;;;;;;;22.45;4.70;;;;;;;;;;5034515;28;20129;-85
2024/01/23 05:12:55;;;;;;;28.50;5.97;;;;;;;;;;5035871;28;20064;-86
2024/01/23 05:15:21;;;;;;;23.98;6.63;;;;;;;;;;5034955;28;20036;-86
2024/01/23 05:17:47;;;;;;;29.65;5.50;;;;;;;;;;5038570;28;20036;-85
2024/01/23 05:20:13;;;;;;;28.55;4.90;;;;;;;;;;5053602;28;21303;-86
2024/01/23 05:22:39;;;;;;;35.40;5.45;;;;;;;;;;5032769;28;20049;-85
2024/01/23 05:25:06;;;;;;;19.10;4.60;;;;;;;;;;5038319;28;20044;-86
2024/01/23 05:27:32;;;;;;;25.33;4.70;;;;;;;;;;5045317;28;20041;-86
2024/01/23 05:29:58;;;;;;;29.95;6.88;;;;;;;;;;5030916;28;20049;-85
2024/01/23 05:32:24;;;;;;;31.00;5.63;;;;;;;;;;5032669;28;20718;-85
2024/01/23 05:34:50;;;;;;;27.20;5.57;;;;;;;;;;5054500;28;20428;-86
2024/01/23 05:37:16;;;;;;;31.52;5.22;;;;;;;;;;5043194;28;20752;-86
2024/01/23 05:39:42;;;;;;;24.42;4.40;;;;;;;;;;5025284;28;20063;-85
2024/01/23 05:42:08;;;;;;;32.88;6.20;;;;;;;;;;5039601;28;20490;-86
2024/01/23 05:44:34;;;;;;;35.10;6.20;;;;;;;;;;5041172;28;20048;-86
2024/01/23 05:47:00;;;;;;;25.35;6.07;;;;;;;;;;5047471;28;20900;-87
2024/01/23 05:49:26;;;;;;;32.92;6.13;;;;;;;;;;5043356;28;20692;-86
2024/01/23 05:51:52;;;;;;;28.13;4.88;;;;;;;;;;5029985;28;20075;-86
2024/01/23 05:54:18;;;;;;;30.40;6.25;;;;;;;;;;5044581;28;20149;-86
2024/01/23 05:56:44;;;;;;;35.47;5.55;;;;;;;;;;5040513;28;20033;-86
2024/01/23 05:59:10;;;;;;;20.70;4.63;;;;;;;;;;5055494;28;20044;-85
2024/01/23 06:01:36;;;;;;;34.67;5.90;;;;;;;;;;5040708;28;20379;-85
2024/01/23 06:04:02;;;;;;;27.13;5.88;;;;;;;;;;5031619;28;20502;-85
2024/01/23 06:06:29;;;;;;;25.25;5.00;;;;;;;;;;5029976;28;20136;-86
2024/01/23 06:08:55;;;;;;;31.73;6.15;;;;;;;;;;5030832;28;20045;-85
2024/01/23 06:11:21;;;;;;;36.85;6.00;;;;;;;;;;5040828;28;20764;-86
2024/01/23 06:13:47;;;;;;;30.92;6.30;;;;;;;;;;5036593;28;20041;-85
2024/01/23 06:16:13;;;;;;;25.30;4.70;;;;;;;;;;5040114;28;20048;-85
2024/01/23 06:18:39;;;;;;;25.80;5.82;;;;;;;;;;5047217;28;20039;-85
2024/01/23 06:21:05;;;;;;;30.65;5.35;;;;;;;;;;5039853;28;20675;-86
2024/01/23 06:23:31;;;;;;;29.17;5.93;;;;;;;;;;5034373;28;20414;-86
2024/01/23 06:25:57;;;;;;;33.15;6.88;;;;;;;;;;5026203;28;20045;-86
2024/01/23 06:28:24;;;;;;;25.05;4.72;;;;;;;;;;5044533;28;20059;-86
2024/01/23 06:30:50;;;;;;;24.77;4.55;;;;;;;;;;5033741;28;20537;-85
2024/01/23 06:33:16;;;;;;;26.17;4.88;;;;;;;;;;5026953;28;20045;-85
2024/01/23 06:35:42;;;;;;;22.58;4.38;;;;;;;;;;5027215;28;20125;-85
2024/01/23 06:38:08;;;;;;;43.58;6.43;;;;;;;;;;5040319;28;20103;-86
2024/01/23 06:40:34;;;;;;;31.80;6.00;;;;;;;;;;5030183;28;20051;-85
2024/01/23 06:43:00;;;;;;;26.73;5.40;;;;;;;;;;5037714;28;20052;-85
2024/01/23 06:45:26;;;;;;;28.83;5.65;;;;;;;;;;5039309;28;20041;-86
2024/01/23 06:47:52;;;;;;;31.35;7.35;;;;;;;;;;5033253;28;20094;-86
2024/01/23 06:50:18;;;;;;;30.27;5.70;;;;;;;;;;5064937;28;20490;-86
2024/01/23 06:52:44;;;;;;;36.70;5.85;;;;;;;;;;5047817;28;20448;-85
2024/01/23 06:55:10;;;;;;;31.85;5.55;;;;;;;;;;5036052;28;20873;-87
2024/01/23 06:57:36;;;;;;;33.78;6.60;;;;;;;;;;5050637;28;20033;-85
2024/01/23 07:00:03;;;;;;;28.17;5.22;;;;;;;;;;5044780;28;20131;-85
2024/01/23 07:02:29;;;;;;;35.35;5.22;;;;;;;;;;5032934;28;20464;-86
2024/01/23 07:04:55;;;;;;;26.88;6.07;;;;;;;;;;5033506;28;20144;-86
2024/01/23 07:07:21;;;;;;;23.55;5.05;;;;;;;;;;5033046;28;20123;-86
2024/01/23 07:09:48;;;;;;;24.70;6.28;;;;;;;;;;5032705;28;20098;-86
2024/01/23 07:12:16;;;;;;;33.65;6.10;;;;;;;;;;5049063;28;20072;-85
2024/01/23 07:14:42;;;;;;;30.15;5.85;;;;;;;;;;5049455;28;20295;-85
2024/01/23 07:17:08;;;;;;;21.08;4.88;;;;;;;;;;5046862;28;20483;-86
2024/01/23 07:19:35;;;;;;;31.35;6.22;;;;;;;;;;5049917;28;20071;-85
2024/01/23 07:22:01;;;;;;;22.70;4.93;;;;;;;;;;5031039;28;20151;-87
2024/01/23 07:24:27;;;;;;;33.80;5.68;;;;;;;;;;5026663;28;20072;-87
2024/01/23 07:26:53;;;;;;;28.05;7.20;;;;;;;;;;5025534;28;20077;-86
2024/01/23 07:29:19;;;;;;;28.63;6.53;;;;;;;;;;5029123;28;20053;-86
2024/01/23 07:31:45;;;;;;;24.58;5.65;;;;;;;;;;5027876;28;20415;-86
2024/01/23 07:34:11;;;;;;;26.30;5.00;;;;;;;;;;5045895;28;20071;-85
2024/01/23 07:36:37;;;;;;;30.95;4.53;;;;;;;;;;5031144;28;20041;-86
2024/01/23 07:39:05;;;;;;;29.90;5.15;;;;;;;;;;5031414;28;20060;-85
2024/01/23 07:41:31;;;;;;;25.30;5.50;;;;;;;;;;5029392;28;20048;-85
2024/01/23 07:43:57;;;;;;;31.30;6.03;;;;;;;;;;5024842;28;20056;-85
2024/01/23 07:46:23;;;;;;;25.88;5.65;;;;;;;;;;5024202;28;20040;-86
2024/01/23 07:48:50;;;;;;;26.77;6.88;;;;;;;;;;5029848;28;20047;-86
2024/01/23 07:51:15;;;;;;;29.65;6.28;;;;;;;;;;5018254;28;20045;-86
2024/01/23 07:53:44;;;;;;;24.13;5.03;;;;;;;;;;5023652;28;20111;-86
2024/01/23 07:56:10;;;;;;;32.75;6.30;;;;;;;;;;5020700;28;20084;-86
2024/01/23 07:58:36;;;;;;;39.10;5.75;;;;;;;;;;5025416;28;20048;-86
2024/01/23 08:01:03;;;;;;;36.35;6.82;;;;;;;;;;5029312;28;20048;-86
2024/01/23 08:03:29;;;;;;;30.80;5.88;;;;;;;;;;5031563;28;20032;-86
2024/01/23 08:05:55;;;;;;;31.40;5.68;;;;;;;;;;5027915;28;20044;-85
2024/01/23 08:08:23;;;;;;;32.70;5.63;;;;;;;;;;5037233;28;20095;-86
2024/01/23 08:10:50;;;;;;;24.90;4.68;;;;;;;;;;5023142;28;20045;-85
2024/01/23 08:13:20;;;;;;;33.55;5.57;;;;;;;;;;5030792;28;20036;-85
2024/01/23 08:15:46;;;;;;;36.75;5.75;;;;;;;;;;5026272;28;20052;-87
2024/01/23 08:18:13;;;;;;;29.17;5.93;;;;;;;;;;5027141;28;20485;-86
2024/01/23 08:20:39;;;;;;;38.10;6.60;;;;;;;;;;5031057;28;20045;-86
2024/01/23 08:23:06;;;;;;;27.90;5.07;;;;;;;;;;5028044;28;20045;-86
2024/01/23 08:25:32;;;;;;;29.88;5.13;;;;;;;;;;5046164;28;20075;-86
2024/01/23 08:27:59;;;;;;;24.83;4.47;;;;;;;;;;5030214;28;20384;-86
2024/01/23 08:30:25;;;;;;;31.15;5.05;;;;;;;;;;5030477;28;20045;-86
2024/01/23 08:32:51;;;;;;;37.25;5.35;;;;;;;;;;5047731;28;20119;-85
2024/01/23 08:35:17;;;;;;;24.65;4.82;;;;;;;;;;5025500;28;20045;-85
2024/01/23 08:37:43;;;;;;;27.25;5.97;;;;;;;;;;5028906;28;20061;-86
2024/01/23 08:40:10;;;;;;;33.38;5.63;;;;;;;;;;5022045;28;20055;-85
2024/01/23 08:42:36;;;;;;;38.60;6.40;;;;;;;;;;5030902;28;20045;-86
2024/01/23 08:45:04;;;;;;;39.47;8.02;;;;;;;;;;5046859;28;20044;-86
2024/01/23 08:47:30;;;;;;;21.60;5.55;;;;;;;;;;5027813;28;20068;-86
2024/01/23 08:49:56;;;;;;;29.60;5.53;;;;;;;;;;5028202;28;20138;-86
2024/01/23 08:52:22;;;;;;;32.47;5.57;;;;;;;;;;5043377;28;20045;-86
2024/01/23 08:54:48;;;;;;;32.03;6.68;;;;;;;;;;5027212;28;20399;-85
2024/01/23 08:57:17;;;;;;;29.30;6.25;;;;;;;;;;5022408;28;20036;-86
2024/01/23 08:59:44;;;;;;;34.70;6.07;;;;;;;;;;5033027;28;20041;-86
2024/01/23 09:02:10;;;;;;;28.63;6.18;;;;;;;;;;5031304;28;20049;-86
2024/01/23 09:04:37;;;;;;;33.17;6.05;;;;;;;;;;5030873;28;20072;-86
2024/01/23 09:07:03;;;;;;;24.58;5.88;;;;;;;;;;5039915;28;20045;-86
2024/01/23 09:09:29;;;;;;;26.65;6.03;;;;;;;;;;5036151;28;20744;-86
2024/01/23 09:11:55;;;;;;;29.42;5.80;;;;;;;;;;5032523;28;20053;-86
2024/01/23 09:14:21;;;;;;;32.90;5.88;;;;;;;;;;5050871;28;20098;-86
2024/01/23 09:16:48;;;;;;;28.55;6.82;;;;;;;;;;5037101;28;20102;-86
2024/01/23 09:19:14;;;;;;;23.20;4.93;;;;;;;;;;5037485;28;20044;-86
2024/01/23 09:21:40;;;;;;;29.80;5.10;;;;;;;;;;5030875;28;20091;-85
2024/01/23 09:24:06;;;;;;;24.30;5.07;;;;;;;;;;5031349;28;20041;-86
2024/01/23 09:26:32;;;;;;;33.65;4.85;;;;;;;;;;5031855;28;20077;-86
2024/01/23 09:28:58;;;;;;;26.23;5.82;;;;;;;;;;5035314;28;20072;-86
2024/01/23 09:31:25;;;;;;;31.05;6.10;;;;;;;;;;5034651;28;20401;-86
2024/01/23 09:33:51;;;;;;;27.17;5.57;;;;;;;;;;5036432;28;20036;-86
2024/01/23 09:36:17;;;;;;;33.00;5.63;;;;;;;;;;5037964;28;20041;-86
2024/01/23 09:38:43;;;;;;;25.98;5.47;;;;;;;;;;5032268;28;20083;-86
2024/01/23 09:41:11;;;;;;;43.20;8.82;;;8.90;99.90;;;;;;5036455;28;20049;-86
2024/01/23 09:43:38;;;;;;;28.77;5.05;;;;;;;;;;5033076;28;20037;-86
2024/01/23 09:46:05;;;;;;;28.15;4.82;;;;;;;;;;5025110;28;20040;-86
2024/01/23 09:48:31;;;;;;;27.60;5.63;;;;;;;;;;5039917;28;20062;-85
2024/01/23 09:50:57;;;;;;;31.08;4.95;;;;;;;;;;5030589;28;20044;-85
2024/01/23 09:53:25;;;;;;;41.22;6.97;;;9.20;99.90;;;;;;5035256;28;20125;-87
2024/01/23 09:55:51;;;;;;;25.55;5.72;;;;;;;;;;5030843;28;20405;-86
2024/01/23 09:58:17;;;;;;;28.00;5.90;;;;;;;;;;5021590;28;20792;-86
2024/01/23 10:00:43;;;;;;;29.63;6.25;;;;;;;;;;5037337;28;20524;-86
2024/01/23 10:03:09;;;;;;;25.02;5.72;;;;;;;;;;5031289;28;20747;-86
2024/01/23 10:05:35;;;;;;;28.02;5.45;;;;;;;;;;5034025;28;20053;-86
2024/01/23 10:08:01;;;;;;;32.05;5.28;;;;;;;;;;5058678;28;20056;-85
2024/01/23 10:10:29;;;;;;;41.42;6.32;;;9.50;99.90;;;;;;5031615;28;20045;-85
2024/01/23 10:12:55;;;;;;;31.30;5.88;;;;;;;;;;5036328;28;20124;-86
2024/01/23 10:15:22;;;;;;;22.35;4.90;;;;;;;;;;5036495;28;20116;-85
2024/01/23 10:17:49;;;;;;;34.10;5.68;;;9.60;99.90;;;;;;5035378;28;20044;-86
2024/01/23 10:20:15;;;;;;;30.48;6.70;;;;;;;;;;5039639;28;20045;-85
2024/01/23 10:22:43;;;;;;;33.45;6.03;;;9.50;99.90;;;;;;5037149;28;21009;-86
2024/01/23 10:25:11;;;;;;;31.80;5.18;;;9.50;99.90;;;;;;5051454;28;20668;-86
2024/01/23 10:27:37;;;;;;;30.55;6.22;;;;;;;;;;5039742;28;20045;-86
2024/01/23 10:30:03;;;;;;;30.35;6.40;;;9.10;99.90;;;;;;5034775;28;20122;-86
2024/01/23 10:32:32;;;;;;;28.20;5.90;;;;;;;;;;5027987;28;20222;-85
2024/01/23 10:34:59;;;;;;;30.30;5.20;;;;;;;;;;5040203;28;20044;-86
2024/01/23 10:37:25;;;;;;;25.83;5.07;;;;;;;;;;5052905;28;20055;-86
2024/01/23 10:39:52;;;;;;;26.05;5.60;;;9.10;99.90;;;;;;5040375;28;20044;-86
2024/01/23 10:42:21;;;;;;;29.65;5.28;;;9.00;99.90;;;;;;5037471;28;20044;-86
2024/01/23 10:44:50;;;;;;;21.88;4.93;;;;;;;;;;5038540;28;20036;-86
2024/01/23 10:47:19;;;;;;;27.27;6.10;;;8.80;99.90;;;;;;5047756;28;20053;-86
2024/01/23 10:49:45;;;;;;;28.20;4.93;;;9.00;99.90;;;;;;5036693;28;20052;-86
2024/01/23 10:52:18;;;;;;;27.13;5.10;;;9.00;99.90;;;;;;5036219;28;20048;-86
2024/01/23 10:54:45;;;;;;;26.38;5.03;;;;;;;;;;5033191;28;20040;-86
2024/01/23 10:57:20;;;;;;;18.27;5.03;;;9.00;99.90;;;;;;5048595;28;20589;-85
2024/01/23 10:59:47;;;;;;;29.98;7.45;;;9.10;99.90;;;;;;5047015;28;20071;-86
2024/01/23 11:02:25;;;;;;;31.10;5.78;;;;;;;;;;5044164;28;20796;-87
2024/01/23 11:04:52;;;;;;;28.58;5.28;;;9.10;99.90;;;;;;5033073;28;20044;-86
2024/01/23 11:07:28;;;;;;;27.40;5.60;;;;;;;;;;5050116;28;20505;-86
2024/01/23 11:10:27;;;;;;;26.38;5.38;;;9.00;99.90;;;;;;5059447;28;20047;-86
2024/01/23 11:12:56;;;;;;;33.05;6.20;;;9.20;99.90;;;;;;5038001;28;20075;-86
2024/01/23 11:15:22;;;;;;;30.70;5.43;;;;;;;;;;5032305;28;20155;-86
2024/01/23 11:17:48;;;;;;;32.75;5.90;;;;;;;;;;5040793;28;20119;-86
2024/01/23 11:20:17;;;;;;;34.70;6.25;;;8.90;99.90;;;;;;5047988;28;20071;-86
2024/01/23 11:22:44;;;;;;;36.22;5.32;;;;;;;;;;5031951;28;20044;-88
2024/01/23 11:25:10;;;;;;;31.75;5.38;;;;;;;;;;5032214;28;20049;-83
2024/01/23 11:27:38;;;;;;;22.33;5.55;;;8.80;99.90;;;;;;5025020;28;20040;-86
2024/01/23 11:30:05;;;;;;;33.30;6.22;;;;;;;;;;5031697;28;20045;-85
2024/01/23 11:32:31;;;;;;;24.52;5.85;;;;;;;;;;5024041;28;20041;-86
2024/01/23 11:35:06;;;;;;;35.28;6.38;;;8.70;99.90;;;;;;5041089;28;20042;-85
2024/01/23 11:37:32;;;;;;;26.58;5.88;;;;;;;;;;5025977;28;20057;-87
2024/01/23 11:40:09;;;;;;;33.75;5.15;;;;;;;;;;5045801;28;20047;-86
2024/01/23 11:42:44;;;;;;;28.00;4.95;;;;;;;;;;5027931;28;20145;-86
2024/01/23 11:45:10;;;;;;;;;;;;;;;;;;5031580;28;20049;-86
2024/01/23 11:47:36;;;;;;;27.77;5.95;;;;;;;;;;5018663;28;19973;-87
2024/01/23 11:50:02;;;;;;;29.33;5.97;;;;;;;;;;5030061;28;20058;-87
2024/01/23 11:52:28;;;;;;;20.90;5.15;;;;;;;;;;5032081;28;20041;-86
2024/01/23 11:54:54;;;;;;;24.05;5.25;;;;;;;;;;5025393;28;20041;-86
2024/01/23 11:57:20;;;;;;;24.88;4.53;;;;;;;;;;5031731;28;20087;-86
2024/01/23 11:59:46;;;;;;;29.30;4.80;;;;;;;;;;5044102;28;20076;-86
2024/01/23 12:02:14;;;;;;;37.67;5.78;;;8.60;99.90;;;;;;5043038;28;20532;-86
2024/01/23 12:04:40;;;;;;;25.50;4.57;;;;;;;;;;5018587;28;20093;-86
2024/01/23 12:07:06;;;;;;;22.80;5.15;;;;;;;;;;5031548;28;20445;-86
2024/01/23 12:09:32;;;;;;;28.05;5.30;;;;;;;;;;5035963;28;20048;-86
2024/01/23 12:11:58;;;;;;;31.83;6.22;;;;;;;;;;5040001;28;20087;-87
2024/01/23 12:14:24;;;;;;;22.85;5.03;;;;;;;;;;5043067;28;20089;-86
2024/01/23 12:17:09;;;;;;;25.95;5.25;;;8.70;99.90;;;;;;5030266;28;20048;-86
2024/01/23 12:19:46;;;;;;;28.67;7.25;;;8.70;99.90;;;;;;5048648;28;20052;-86
2024/01/23 12:22:13;;;;;;;23.20;5.20;;;8.70;99.90;;;;;;5033158;28;20044;-87
2024/01/23 12:24:40;;;;;;;24.73;5.40;;;8.90;99.90;;;;;;5054990;28;20083;-86
2024/01/23 12:27:06;;;;;;;29.98;6.63;;;;;;;;;;5036874;28;20138;-86
2024/01/23 12:29:32;;;;;;;26.95;6.50;;;;;;;;;;5037924;28;20061;-87
2024/01/23 12:31:59;;;;;;;27.75;5.25;;;9.20;99.90;;;;;;5027998;28;20075;-87
2024/01/23 12:34:25;;;;;;;26.50;5.10;;;;;;;;;;5019662;28;20132;-86
2024/01/23 12:36:51;;;;;;;28.55;5.30;;;;;;;;;;5042742;28;20102;-86
2024/01/23 12:39:17;;;;;;;25.30;5.03;;;;;;;;;;5032296;28;20049;-86
2024/01/23 12:41:44;;;;;;;21.35;4.57;;;9.10;99.90;;;;;;5039619;28;20037;-86
2024/01/23 12:44:10;;;;;;;29.00;5.32;;;;;;;;;;5035985;28;20059;-86
2024/01/23 12:46:36;;;;;;;20.45;4.78;;;;;;;;;;5045866;28;20075;-86
2024/01/23 12:49:06;;;;;;;25.77;5.43;;;9.50;99.90;;;;;;5042472;28;20037;-86
2024/01/23 12:51:32;;;;;;;30.38;5.18;;;;;;;;;;5028782;28;20055;-86
2024/01/23 12:53:58;;;;;;;26.77;5.70;;;;;;;;;;5040333;28;20048;-87
2024/01/23 12:56:24;;;;;;;27.80;5.20;;;;;;;;;;5037923;28;20073;-85
2024/01/23 12:58:51;;;;;;;21.27;5.95;;;;;;;;;;5037836;28;20564;-85
2024/01/23 13:01:18;;;;;;;26.95;4.25;;;;;;;;;;5034741;28;20045;-87
2024/01/23 13:03:44;;;;;;;26.05;5.20;;;;;;;;;;5044434;28;20048;-86
2024/01/23 13:06:10;;;;;;;25.95;5.07;;;;;;;;;;5046290;28;20076;-86
2024/01/23 13:08:36;;;;;;;20.73;5.20;;;;;;;;;;5042275;28;20050;-86
2024/01/23 13:11:03;;;;;;;25.83;5.00;;;;;;;;;;5034522;28;20131;-86
2024/01/23 13:13:29;;;;;;;26.70;5.10;;;;;;;;;;5030828;28;20045;-86
2024/01/23 13:15:55;;;;;;;23.95;4.55;;;;;;;;;;5052363;28;20080;-86
2024/01/23 13:18:21;;;;;;;22.15;4.60;;;;;;;;;;5033699;28;20045;-86
2024/01/23 13:20:48;;;;;;;18.92;4.28;;;;;;;;;;5041380;28;20044;-86
2024/01/23 13:23:14;;;;;;;31.88;5.38;;;;;;;;;;5030149;28;20306;-86
2024/01/23 13:25:46;;;;;;;23.20;4.05;;;8.80;99.90;;;;;;5021591;28;20639;-86
2024/01/23 13:28:18;;;;;;;23.58;4.93;;;;;;;;;;5035269;28;20051;-86
2024/01/23 13:30:47;;;;;;;26.20;5.10;;;;;;;;;;5040198;28;20040;-86
2024/01/23 13:33:13;;;;;;;27.83;5.57;;;;;;;;;;5048346;28;20123;-86
2024/01/23 13:35:39;;;;;;;25.38;4.47;;;;;;;;;;5038114;28;20040;-86
2024/01/23 13:38:06;;;;;;;27.38;4.30;;;;;;;;;;5054511;28;20053;-86
2024/01/23 13:40:32;;;;;;;30.85;5.15;;;;;;;;;;5067279;28;20124;-86
2024/01/23 13:42:58;;;;;;;26.77;4.55;;;;;;;;;;5047743;28;20049;-86
2024/01/23 13:45:27;;;;;;;36.45;6.13;;;;;;;;;;5045961;28;20562;-87
2024/01/23 13:47:55;;;;;;;23.15;5.35;;;;;;;;;;5038311;28;20044;-87
2024/01/23 13:50:21;;;;;;;23.65;4.40;;;;;;;;;;5059062;28;20052;-85
2024/01/23 13:52:49;;;;;;;24.80;5.15;;;;;;;;;;5039237;28;20041;-85
2024/01/23 13:55:16;;;;;;;18.45;4.43;;;;;;;;;;5040847;28;20037;-86
2024/01/23 13:57:43;;;;;;;28.17;6.65;;;;;;;;;;5051032;28;20381;-86
2024/01/23 14:00:12;;;;;;;21.05;3.95;;;;;;;;;;5046839;28;20723;-86
2024/01/23 14:02:38;;;;;;;27.02;5.43;;;;;;;;;;5049338;28;20040;-85
2024/01/23 14:05:05;;;;;;;30.00;5.88;;;;;;;;;;5032489;28;20041;-86
2024/01/23 14:07:34;;;;;;;23.17;4.93;;;;;;;;;;5032126;28;20041;-86
2024/01/23 14:10:03;;;;;;;25.15;5.25;;;;;;;;;;5033049;28;20107;-87
2024/01/23 14:12:31;;;;;;;30.48;5.07;;;;;;;;;;5051511;28;20048;-87
2024/01/23 14:14:58;;;;;;;17.77;4.20;;;;;;;;;;5053678;28;20067;-86
2024/01/23 14:17:24;;;;;;;18.05;3.78;;;;;;;;;;5041657;28;20043;-86